• Join FlightAware (Why Join?)
  • Login
  • US Flag 
04:11AM EDT


 

Airport Tracker/Info


-or-


 

Live Flight TrackerFlight Track Log ✈ DAL918 ✈ 2013年12月 1日 ✈ KATL - KAGS

Flight Track Log - Related Links

Times and Time Zones

All times are in EST time to prevent confusion due to time zone crossing. See the DAL918 flight status page for this flight to view local times or setup timezone preferences in your user account.

Time Position Orientation Groundspeed Altitude Reporting Facility
EST Latitude Longitude Course Direction KTS MPH feet Rate Location/Type
07:12PM 33.6203 -84.4878 90° East 367 422 2,600  Level Atlanta Center
07:13PM 33.5803 -84.5625 237° Southwest 320 368 5,800 2,580 Climbing Atlanta Center
07:14PM 33.5156 -84.5844 196° South 281 323 7,800 2,100 Climbing Atlanta Center
07:15PM 33.4511 -84.5169 139° Southeast 324 373 10,100 1,860 Climbing Atlanta Center
07:16PM 33.4472 -84.4097 92° East 350 403 11,600 1,260 Climbing Atlanta Center
07:17PM 33.4581 -84.2778 84° East 366 421 12,700 1,620 Climbing Atlanta Center
07:18PM 33.5492 -83.5672 90° East  Level Estimated
07:18PM 33.4747 -84.1408 82° East 405 466 14,900  Level Atlanta Center
07:19PM 33.4917 -84.0014 82° East 415 478 16,200 960 Climbing Atlanta Center
07:20PM 33.5061 -83.8519 83° East 433 498 16,900 360 Climbing Atlanta Center
07:21PM 33.5244 -83.7000 82° East 456 525 17,000  Climbing Atlanta Center
07:22PM 33.5408 -83.5678 82° East 456 525 16,900  Descending Atlanta Center
07:23PM 33.5653 -83.4181 79° East 456 525 17,000  Climbing Atlanta Center
07:24PM 33.5936 -83.2731 77° East 451 519 17,000  Level Atlanta Center
07:25PM 33.6114 -83.1208 82° East 451 519 17,000 -480 Level Atlanta Center
07:26PM 33.6308 -82.9708 81° East 451 519 16,100 -1,140 Descending Atlanta Center
07:27PM 33.6464 -82.8286 82° East 437 503 14,800 -1,500 Descending Atlanta Center
07:28PM 33.6575 -82.6986 84° East 406 467 13,200 -1,500 Descending Atlanta Center
07:29PM 33.6686 -82.5661 84° East 373 429 11,800 -1,380 Descending Atlanta Center
07:30PM 33.6736 -82.4636 87° East 331 381 10,500 -1,860 Descending Atlanta Center
07:31PM 33.6681 -82.3614 94° East 313 360 8,100 -2,400 Descending Atlanta Center
07:32PM 33.6394 -82.2697 111° Southeast 295 339 5,800 -2,220 Descending Atlanta Center
07:33PM 33.6111 -82.1831 111° Southeast 284 327 3,700 -1,500 Descending Atlanta Center
07:34PM 33.5828 -82.1114 115° Southeast 262 302 2,800 -840 Descending Atlanta Center
07:35PM 33.5547 -82.0522 120° Southeast 225 259 2,100 -720 Descending Atlanta Center
07:37PM 33.4761 -82.0214 157° South  Level FlightAware Approximate